Flight Track Log - Related Links

Times and Time Zones

All times are in EDT time to prevent confusion due to time zone crossing. See the ASQ4879 flight status page for this flight to view local times or setup timezone preferences in your user account.


Time Position Orientation Groundspeed Altitude Reporting Facility
EDT Latitude Longitude Course Direction KTS MPH feet Rate Location/Type
Mon 10:41:44 AM 33.3400 -85.8814 255° West 373 429 24,900  Level Atlanta Center
Mon 10:42:44 AM 33.3131 -86.0050 255° West 378 435 26,000 550 Climbing Atlanta Center
Mon 10:43:44 AM 33.2281 -86.0975 222° Southwest 383 441 26,000  Level Atlanta Center
Mon 10:44:44 AM 33.1325 -86.1894 219° Southwest 414 476 26,000  Level Atlanta Center
Mon 10:45:44 AM 33.0328 -86.2836 218° Southwest 443 510 26,000  Level Atlanta Center
Mon 10:46:43 AM 32.9289 -86.3775 217° Southwest 463 533 26,000  Level Atlanta Center
Mon 10:47:44 AM 32.8269 -86.4711 218° Southwest 468 539 26,000  Level Atlanta Center
Mon 10:48:43 AM 32.7311 -86.5625 219° Southwest 480 552 26,000  Level Atlanta Center
Mon 10:49:43 AM 32.6289 -86.6581 218° Southwest 480 552 26,000  Level Atlanta Center
Mon 10:50:44 AM 32.5225 -86.7536 217° Southwest 480 552 26,000  Level Atlanta Center
Mon 10:51:43 AM 32.4158 -86.8511 218° Southwest 480 552 26,000 -50 Level Atlanta Center
Mon 10:52:43 AM 32.3094 -86.9461 217° Southwest 485 558 25,900 -350 Descending Atlanta Center
Mon 10:53:43 AM 32.2006 -87.0456 218° Southwest 485 558 25,300 -600 Descending Atlanta Center
Mon 10:54:43 AM 32.0958 -87.1425 218° Southwest 491 565 24,700 -600 Descending Atlanta Center
Mon 10:55:43 AM 31.9892 -87.2369 217° Southwest 491 565 24,100 -600 Descending Atlanta Center
Mon 10:56:43 AM 31.8778 -87.3431 219° Southwest 491 565 23,500 -600 Descending Atlanta Center
Mon 10:57:43 AM 31.7728 -87.4392 218° Southwest 480 552 22,900 -1,057 Descending Atlanta Center
Mon 10:59:56 AM 31.5458 -87.6328 216° Southwest 457 526 20,100 -1,569 Descending Houston Center
Mon 11:00:58 AM 31.4528 -87.7161 217° Southwest 424 488 17,800 -2,081 Descending Houston Center
Mon 11:02:00 AM 31.3622 -87.7978 218° Southwest 412 474 15,800 -2,081 Descending Houston Center
Mon 11:03:02 AM 31.2725 -87.8789 218° Southwest 408 470 13,500 -2,177 Descending Houston Center
Mon 11:04:04 AM 31.1886 -87.9497 216° Southwest 375 432 11,300 -1,694 Descending Houston Center
Mon 11:05:06 AM 31.0797 -87.9931 199° South 346 398 10,000 -1,548 Descending Houston Center
Mon 11:06:08 AM 30.9997 -88.0242 198° South 308 354 8,100 -1,887 Descending Houston Center
Mon 11:07:10 AM 30.9197 -88.0567 199° South 300 345 6,100 -1,887 Descending Houston Center
Mon 11:08:12 AM 30.8403 -88.0875 198° South 299 344 4,200 -1,488 Descending Houston Center
Mon 11:09:15 AM 30.7636 -88.0947 185° South 285 328 3,000 -576 Descending Houston Center
Mon 11:10:17 AM 30.6869 -88.0925 179° South 277 319 3,000  Level Houston Center
Mon 11:11:19 AM 30.6267 -88.0408 144° Southeast 269 310 3,000 -532 Level Houston Center
Mon 11:12:21 AM 30.5483 -88.0492 185° South 277 319 1,900 -532 Descending Houston Center
Mon 11:13:23 AM 30.5472 -88.1189 269° West 255 293 1,900  Level Houston Center
Mon 11:14:25 AM 30.5900 -88.1614 319° Northwest 224 258 1,900 -194 Level Houston Center
Mon 11:15:27 AM 30.6308 -88.1933 326° Northwest 197 227 1,500 -581 Descending Houston Center
Mon 11:16:29 AM 30.6656 -88.2228 324° Northwest 175 201 700 -532 Descending Houston Center
Mon 11:17:31 AM 30.7050 -88.2558 324° Northwest 166 191 400 -290 Descending Houston Center
Mon 11:19:00 AM 30.6886 -88.2597 103° East  Level FlightAware Approximate

Login

Don't have an account? Register now (free) for customized features, flight alerts, and more!